NC State University, North Carolina
Current Conditions -  °F | °C
As of 1:51 AM on Wednesday 22 Oct 2014 (Local Time) from KRDU Reporting Station
Scattered Clouds Scattered Clouds  
Wind Chill: 52°   Ceiling: Unl
Heat Index: 52°   Visibility: 10mi
Dew Point: 39°   Wind: 5mph
Humidity: 61%   Direction: 300°WNW
Pressure: 29.93"   Gusts: NA
Location:  35.8072°N, 78.7126°W
Report Text: KRDU 220551Z 30004KT 10SM FEW050 SCT100 11/04 A2993 RMK AO2 SLP133 T01110039 10183 20111 58005
Loading
Personal Weather Stations






























Interactive Weather Map
Tropical Storm Tracking
New forecast layout! Learn more

10-Day Weather Forecast

Advertisements
Track Severe Weather on mobile